createdAt,value
2023-05-12T00:00:30.779Z,96610.78
2023-05-12T00:02:57.234Z,96602.75
2023-05-12T00:05:23.679Z,96603.56
2023-05-12T00:07:50.043Z,96608.09
2023-05-12T00:10:16.426Z,96609.72
2023-05-12T00:12:42.781Z,96606.75
2023-05-12T00:15:09.138Z,96596.00
2023-05-12T00:17:35.584Z,96595.50
2023-05-12T00:20:02.046Z,96601.94
2023-05-12T00:22:28.576Z,96598.22
2023-05-12T00:24:54.965Z,96596.31
2023-05-12T00:27:21.435Z,96603.25
2023-05-12T00:29:48.022Z,96597.25
2023-05-12T00:32:14.503Z,96597.28
2023-05-12T00:34:40.879Z,96595.66
2023-05-12T00:37:07.284Z,96599.28
2023-05-12T00:39:33.684Z,96596.16
2023-05-12T00:42:00.066Z,96589.00
2023-05-12T00:44:26.515Z,96584.78
2023-05-12T00:46:52.904Z,96582.06
2023-05-12T00:49:19.270Z,96582.88
2023-05-12T00:51:45.923Z,96581.00
2023-05-12T00:54:12.297Z,96578.59
2023-05-12T00:56:38.934Z,96579.06
2023-05-12T00:59:05.350Z,96573.44
2023-05-12T01:01:31.879Z,96574.00
2023-05-12T01:03:58.320Z,96571.38
2023-05-12T01:06:24.694Z,96571.09
2023-05-12T01:08:51.060Z,96578.34
2023-05-12T01:11:17.509Z,96570.00
2023-05-12T01:13:43.942Z,96569.19
2023-05-12T01:16:10.347Z,96568.66
2023-05-12T01:18:36.809Z,96559.53
2023-05-12T01:21:03.343Z,96562.19
2023-05-12T01:23:29.722Z,96559.25
2023-05-12T01:25:56.211Z,96558.41
2023-05-12T01:28:22.591Z,96562.97
2023-05-12T01:30:48.992Z,96560.03
2023-05-12T01:33:15.411Z,96554.44
2023-05-12T01:35:41.813Z,96561.41
2023-05-12T01:38:08.255Z,96547.19
2023-05-12T01:40:34.689Z,96557.16
2023-05-12T01:43:01.116Z,96557.38
2023-05-12T01:45:27.522Z,96557.13
2023-05-12T01:47:53.924Z,96556.84
2023-05-12T01:50:20.450Z,96550.94
2023-05-12T01:52:47.005Z,96551.72
2023-05-12T01:55:13.459Z,96552.81
2023-05-12T01:57:39.843Z,96554.94
2023-05-12T02:00:06.285Z,96556.31
2023-05-12T02:02:32.736Z,96553.88
2023-05-12T02:04:59.184Z,96552.56
2023-05-12T02:07:25.651Z,96558.19
2023-05-12T02:09:52.087Z,96554.72
2023-05-12T02:12:18.479Z,96548.50
2023-05-12T02:14:44.835Z,96543.97
2023-05-12T02:17:11.216Z,96548.25
2023-05-12T02:19:37.657Z,96543.13
2023-05-12T02:22:04.054Z,96544.16
2023-05-12T02:24:30.421Z,96544.97
2023-05-12T02:26:56.777Z,96549.25
2023-05-12T02:29:23.163Z,96546.28
2023-05-12T02:31:49.629Z,96545.41
2023-05-12T02:34:16.059Z,96544.94
2023-05-12T02:36:42.534Z,96536.34
2023-05-12T02:39:08.961Z,96541.41
2023-05-12T02:41:35.365Z,96542.97
2023-05-12T02:44:01.737Z,96545.94
2023-05-12T02:46:28.152Z,96542.97
2023-05-12T02:48:54.527Z,96541.63
2023-05-12T02:51:20.913Z,96546.16
2023-05-12T02:53:47.309Z,96547.00
2023-05-12T02:56:13.666Z,96545.59
2023-05-12T02:58:40.068Z,96548.84
2023-05-12T03:01:10.817Z,96535.97
2023-05-12T03:03:38.032Z,96537.53
2023-05-12T03:06:04.664Z,96548.53
2023-05-12T03:08:31.099Z,96545.38
2023-05-12T03:10:57.543Z,96547.72
2023-05-12T03:13:23.922Z,96539.41
2023-05-12T03:15:50.349Z,96541.38
2023-05-12T03:18:16.740Z,96546.19
2023-05-12T03:20:43.338Z,96542.91
2023-05-12T03:23:09.744Z,96541.91
2023-05-12T03:25:36.260Z,96541.66
2023-05-12T03:28:02.675Z,96538.69
2023-05-12T03:30:29.137Z,96539.94
2023-05-12T03:32:55.598Z,96533.06
2023-05-12T03:35:22.026Z,96526.38
2023-05-12T03:37:48.427Z,96535.00
2023-05-12T03:40:14.798Z,96531.75
2023-05-12T03:42:41.179Z,96533.91
2023-05-12T03:45:07.572Z,96526.69
2023-05-12T03:47:34.078Z,96525.75
2023-05-12T03:50:00.606Z,96530.53
2023-05-12T03:52:27.074Z,96534.31
2023-05-12T03:54:53.458Z,96526.75
2023-05-12T03:57:19.888Z,96529.91
2023-05-12T03:59:46.265Z,96522.69
2023-05-12T04:02:12.655Z,96516.31
2023-05-12T04:04:39.115Z,96513.38
2023-05-12T04:07:05.588Z,96505.88
2023-05-12T04:09:32.062Z,96517.06
2023-05-12T04:11:58.489Z,96516.53
2023-05-12T04:14:35.332Z,96521.34
2023-05-12T04:17:08.377Z,96514.91
2023-05-12T04:19:34.793Z,96522.06
2023-05-12T04:22:01.378Z,96520.03
2023-05-12T04:24:27.799Z,96522.50
2023-05-12T04:26:54.178Z,96523.53
2023-05-12T04:29:20.550Z,96528.84
2023-05-12T04:31:47.192Z,96528.34
2023-05-12T04:34:13.638Z,96523.69
2023-05-12T04:36:40.033Z,96525.16
2023-05-12T04:39:06.436Z,96522.88
2023-05-12T04:41:32.832Z,96520.19
2023-05-12T04:44:00.692Z,96518.50
2023-05-12T04:46:27.329Z,96530.72
2023-05-12T04:48:53.727Z,96528.59
2023-05-12T04:51:20.120Z,96524.97
2023-05-12T04:53:46.611Z,96523.09
2023-05-12T04:56:13.014Z,96529.31
2023-05-12T04:58:39.416Z,96527.72
2023-05-12T05:01:05.822Z,96524.03
2023-05-12T05:03:32.310Z,96525.59
2023-05-12T05:05:58.720Z,96518.41
2023-05-12T05:08:25.137Z,96524.09
2023-05-12T05:10:51.606Z,96525.97
2023-05-12T05:13:18.201Z,96526.81
2023-05-12T05:15:44.764Z,96531.88
2023-05-12T05:18:11.242Z,96535.91
2023-05-12T05:20:40.671Z,96546.38
2023-05-12T05:23:09.519Z,96535.69
2023-05-12T05:25:35.940Z,96540.25
2023-05-12T05:28:02.353Z,96541.59
2023-05-12T05:30:29.021Z,96542.94
2023-05-12T05:32:55.539Z,96541.88
2023-05-12T05:35:22.163Z,96550.44
2023-05-12T05:37:48.688Z,96548.50
2023-05-12T05:40:15.064Z,96547.94
2023-05-12T05:42:41.477Z,96546.09
2023-05-12T05:45:07.926Z,96547.72
2023-05-12T05:47:34.391Z,96545.91
2023-05-12T05:50:00.816Z,96551.00
2023-05-12T05:52:27.225Z,96549.13
2023-05-12T05:54:53.614Z,96542.72
2023-05-12T05:57:20.006Z,96548.63
2023-05-12T05:59:46.402Z,96547.28
2023-05-12T06:02:12.827Z,96545.47
2023-05-12T06:04:39.317Z,96554.59
2023-05-12T06:07:05.801Z,96551.38
2023-05-12T06:09:32.150Z,96559.44
2023-05-12T06:11:58.551Z,96552.44
2023-05-12T06:14:25.017Z,96555.69
2023-05-12T06:16:51.440Z,96547.38
2023-05-12T06:19:17.817Z,96552.44
2023-05-12T06:21:44.204Z,96552.16
2023-05-12T06:24:10.630Z,96554.06
2023-05-12T06:26:37.014Z,96549.50
2023-05-12T06:29:03.417Z,96559.41
2023-05-12T06:31:29.846Z,96556.44
2023-05-12T06:33:56.686Z,96550.81
2023-05-12T06:36:23.072Z,96555.13
2023-05-12T06:38:49.436Z,96559.91
2023-05-12T06:41:15.805Z,96570.91
2023-05-12T06:43:42.216Z,96563.41
2023-05-12T06:46:08.895Z,96565.25
2023-05-12T06:48:35.320Z,96557.50
2023-05-12T06:51:01.738Z,96559.88
2023-05-12T06:53:28.277Z,96562.03
2023-05-12T06:55:54.709Z,96559.91
2023-05-12T06:58:21.117Z,96558.47
2023-05-12T07:00:47.551Z,96559.81
2023-05-12T07:03:14.089Z,96562.19
2023-05-12T07:05:40.592Z,96561.38
2023-05-12T07:08:07.139Z,96565.16
2023-05-12T07:10:33.571Z,96558.63
2023-05-12T07:12:59.961Z,96558.00
2023-05-12T07:15:26.608Z,96562.88
2023-05-12T07:17:53.119Z,96558.31
2023-05-12T07:20:19.531Z,96556.56
2023-05-12T07:22:45.940Z,96565.16
2023-05-12T07:25:12.338Z,96566.88
2023-05-12T07:27:38.756Z,96565.25
2023-05-12T07:30:05.163Z,96566.13
2023-05-12T07:32:31.577Z,96568.03
2023-05-12T07:34:57.980Z,96561.56
2023-05-12T07:37:24.385Z,96569.28
2023-05-12T07:39:51.061Z,96565.72
2023-05-12T07:42:17.456Z,96551.44
2023-05-12T07:44:43.824Z,96561.13
2023-05-12T07:47:10.234Z,96556.22
2023-05-12T07:49:36.716Z,96560.00
2023-05-12T07:52:03.110Z,96570.59
2023-05-12T07:54:29.508Z,96569.81
2023-05-12T07:56:55.916Z,96560.31
2023-05-12T07:59:22.454Z,96569.41
2023-05-12T08:01:48.920Z,96556.75
2023-05-12T08:04:15.507Z,96560.50
2023-05-12T08:06:41.986Z,96562.13
2023-05-12T08:09:08.404Z,96558.00
2023-05-12T08:11:34.871Z,96560.72
2023-05-12T08:14:01.263Z,96556.22
2023-05-12T08:16:27.771Z,96553.72
2023-05-12T08:18:54.248Z,96556.19
2023-05-12T08:21:20.695Z,96554.00
2023-05-12T08:23:47.061Z,96555.31
2023-05-12T08:26:13.506Z,96555.53
2023-05-12T08:28:39.882Z,96556.50
2023-05-12T08:31:06.298Z,96556.97
2023-05-12T08:33:32.701Z,96555.25
2023-05-12T08:35:59.125Z,96559.13
2023-05-12T08:38:25.601Z,96547.75
2023-05-12T08:40:52.192Z,96556.94
2023-05-12T08:43:18.606Z,96554.97
2023-05-12T08:45:44.996Z,96550.56
2023-05-12T08:48:11.490Z,96539.63
2023-05-12T08:50:38.046Z,96545.22
2023-05-12T08:53:04.436Z,96542.03
2023-05-12T08:55:33.528Z,96534.47
2023-05-12T08:58:00.469Z,96530.72
2023-05-12T09:00:26.942Z,96535.25
2023-05-12T09:02:54.666Z,96540.19
2023-05-12T09:05:21.581Z,96532.88
2023-05-12T09:07:48.301Z,96534.47
2023-05-12T09:10:26.002Z,96537.56
2023-05-12T09:12:59.717Z,96538.75
2023-05-12T09:15:26.110Z,96543.22
2023-05-12T09:17:52.506Z,96542.22
2023-05-12T09:20:30.463Z,96539.41
2023-05-12T09:22:57.667Z,96546.03
2023-05-12T09:25:24.035Z,96546.63
2023-05-12T09:27:50.431Z,96548.03
2023-05-12T09:30:16.830Z,96541.22
2023-05-12T09:32:43.241Z,96547.91
2023-05-12T09:35:09.783Z,96540.78
2023-05-12T09:37:36.171Z,96537.50
2023-05-12T09:40:02.574Z,96533.50
2023-05-12T09:42:29.100Z,96532.50
2023-05-12T09:44:55.488Z,96535.59
2023-05-12T09:47:22.084Z,96536.09
2023-05-12T09:49:48.497Z,96522.03
2023-05-12T09:52:14.883Z,96530.34
2023-05-12T09:54:41.296Z,96528.28
2023-05-12T09:57:07.933Z,96534.69
2023-05-12T09:59:34.574Z,96525.28
2023-05-12T10:02:01.108Z,96526.06
2023-05-12T10:04:27.931Z,96510.97
2023-05-12T10:06:54.346Z,96513.41
2023-05-12T10:09:20.835Z,96513.75
2023-05-12T10:11:47.396Z,96521.78
2023-05-12T10:14:13.903Z,96519.13
2023-05-12T10:16:40.360Z,96523.88
2023-05-12T10:19:06.927Z,96519.91
2023-05-12T10:21:33.376Z,96513.25
2023-05-12T10:23:59.978Z,96517.25
2023-05-12T10:26:26.381Z,96505.44
2023-05-12T10:28:52.797Z,96510.47
2023-05-12T10:31:19.200Z,96510.44
2023-05-12T10:33:45.657Z,96498.84
2023-05-12T10:36:12.060Z,96493.41
2023-05-12T10:38:38.495Z,96497.06
2023-05-12T10:41:04.924Z,96478.81
2023-05-12T10:43:31.398Z,96477.50
2023-05-12T10:45:57.911Z,96472.03
2023-05-12T10:48:24.346Z,96476.84
2023-05-12T10:50:50.958Z,96477.41
2023-05-12T10:53:17.389Z,96476.97
2023-05-12T10:55:43.960Z,96465.94
2023-05-12T10:58:11.268Z,96458.22
2023-05-12T11:00:38.266Z,96465.34
2023-05-12T11:03:09.945Z,96457.41
2023-05-12T11:05:37.760Z,96474.00
2023-05-12T11:08:04.854Z,96457.41
2023-05-12T11:10:31.738Z,96459.75
2023-05-12T11:12:58.422Z,96456.31
2023-05-12T11:15:24.912Z,96467.75
2023-05-12T11:17:51.394Z,96473.34
2023-05-12T11:20:17.888Z,96457.13
2023-05-12T11:22:44.258Z,96454.69
2023-05-12T11:25:10.843Z,96459.19
2023-05-12T11:27:37.387Z,96457.69
2023-05-12T11:30:03.800Z,96457.84
2023-05-12T11:32:30.434Z,96453.72
2023-05-12T11:34:57.129Z,96448.97
2023-05-12T11:37:23.584Z,96446.63
2023-05-12T11:39:50.069Z,96447.47
2023-05-12T11:42:19.694Z,96439.00
2023-05-12T11:44:47.186Z,96444.16
2023-05-12T11:47:13.601Z,96431.63
2023-05-12T11:49:40.031Z,96431.13
2023-05-12T11:52:06.418Z,96432.53
2023-05-12T11:54:32.832Z,96437.63
2023-05-12T11:56:59.242Z,96433.16
2023-05-12T11:59:25.643Z,96430.72
2023-05-12T12:01:52.156Z,96431.13
2023-05-12T12:04:18.599Z,96434.22
2023-05-12T12:06:45.033Z,96431.16
2023-05-12T12:09:11.392Z,96443.09
2023-05-12T12:11:37.784Z,96432.03
2023-05-12T12:14:04.189Z,96428.16
2023-05-12T12:16:30.803Z,96419.19
2023-05-12T12:18:57.274Z,96428.66
2023-05-12T12:21:23.670Z,96426.00
2023-05-12T12:23:51.751Z,96425.53
2023-05-12T12:26:18.329Z,96422.94
2023-05-12T12:28:44.784Z,96418.19
2023-05-12T12:31:11.199Z,96426.06
2023-05-12T12:33:37.583Z,96424.09
2023-05-12T12:36:04.102Z,96424.09
2023-05-12T12:38:30.563Z,96429.59
2023-05-12T12:40:57.005Z,96421.59
2023-05-12T12:43:23.440Z,96418.84
2023-05-12T12:45:50.116Z,96424.00
2023-05-12T12:48:16.541Z,96416.09
2023-05-12T12:50:42.961Z,96422.47
2023-05-12T12:53:09.427Z,96411.22
2023-05-12T12:55:35.843Z,96415.44
2023-05-12T12:58:02.257Z,96420.88
2023-05-12T13:00:28.616Z,96420.59
2023-05-12T13:02:55.120Z,96412.41
2023-05-12T13:05:21.911Z,96416.94
2023-05-12T13:07:48.708Z,96421.41
2023-05-12T13:10:15.129Z,96418.91
2023-05-12T13:12:41.539Z,96415.19
2023-05-12T13:15:07.933Z,96409.97
2023-05-12T13:17:34.399Z,96408.91
2023-05-12T13:20:00.915Z,96407.41
2023-05-12T13:22:27.340Z,96400.63
2023-05-12T13:24:53.947Z,96394.34
2023-05-12T13:27:20.357Z,96401.25
2023-05-12T13:29:46.796Z,96393.44
2023-05-12T13:32:13.239Z,96398.06
2023-05-12T13:34:39.617Z,96391.91
2023-05-12T13:37:06.022Z,96388.34
2023-05-12T13:39:32.392Z,96382.38
2023-05-12T13:41:58.811Z,96382.53
2023-05-12T13:44:25.212Z,96387.41
2023-05-12T13:46:51.626Z,96380.69
2023-05-12T13:49:18.132Z,96381.63
2023-05-12T13:51:44.555Z,96371.53
2023-05-12T13:54:10.980Z,96369.81
2023-05-12T13:56:37.349Z,96370.59
2023-05-12T13:59:03.739Z,96376.13
2023-05-12T14:01:30.209Z,96375.81
2023-05-12T14:03:56.585Z,96377.03
2023-05-12T14:06:23.126Z,96360.00
2023-05-12T14:08:49.692Z,96365.66
2023-05-12T14:11:16.069Z,96362.97
2023-05-12T14:13:42.468Z,96359.03
2023-05-12T14:16:09.018Z,96354.09
2023-05-12T14:18:35.501Z,96357.66
2023-05-12T14:21:01.878Z,96357.44
2023-05-12T14:23:28.291Z,96353.94
2023-05-12T14:25:54.690Z,96345.13
2023-05-12T14:28:21.160Z,96341.44
2023-05-12T14:30:47.652Z,96346.38
2023-05-12T14:33:14.146Z,96348.81
2023-05-12T14:35:40.641Z,96349.63
2023-05-12T14:38:06.987Z,96340.03
2023-05-12T14:40:33.367Z,96349.38
2023-05-12T14:42:59.879Z,96343.41
2023-05-12T14:45:26.347Z,96333.31
2023-05-12T14:47:52.793Z,96340.50
2023-05-12T14:50:19.522Z,96349.44
2023-05-12T14:52:46.032Z,96342.84
2023-05-12T14:55:12.509Z,96352.19
2023-05-12T14:57:38.933Z,96341.06
2023-05-12T15:00:05.305Z,96344.25
2023-05-12T15:02:31.758Z,96340.63
2023-05-12T15:04:58.273Z,96343.00
2023-05-12T15:07:24.683Z,96339.00
2023-05-12T15:09:51.122Z,96345.06
2023-05-12T15:12:17.709Z,96346.22
2023-05-12T15:14:45.168Z,96350.13
2023-05-12T15:17:11.691Z,96354.25
2023-05-12T15:19:38.089Z,96353.50
2023-05-12T15:22:04.626Z,96356.06
2023-05-12T15:24:31.187Z,96365.88
2023-05-12T15:26:57.548Z,96357.75
2023-05-12T15:29:23.929Z,96355.81
2023-05-12T15:31:50.354Z,96353.44
2023-05-12T15:34:16.835Z,96353.28
2023-05-12T15:36:43.201Z,96350.28
2023-05-12T15:39:09.586Z,96359.09
2023-05-12T15:41:35.971Z,96353.59
2023-05-12T15:44:02.321Z,96350.41
2023-05-12T15:46:28.747Z,96362.22
2023-05-12T15:48:55.226Z,96354.00
2023-05-12T15:51:21.638Z,96348.47
2023-05-12T15:53:48.015Z,96346.63
2023-05-12T15:56:14.386Z,96347.25
2023-05-12T15:58:40.752Z,96349.44
2023-05-12T16:01:07.119Z,96349.13
2023-05-12T16:03:33.603Z,96350.84
2023-05-12T16:06:00.056Z,96352.28
2023-05-12T16:08:26.415Z,96352.88
2023-05-12T16:10:52.774Z,96358.03
2023-05-12T16:13:19.188Z,96362.94
2023-05-12T16:15:45.882Z,96362.25
2023-05-12T16:18:12.366Z,96358.44
2023-05-12T16:20:38.878Z,96358.50
2023-05-12T16:23:05.420Z,96379.13
2023-05-12T16:25:31.823Z,96374.84
2023-05-12T16:27:58.324Z,96372.31
2023-05-12T16:30:24.694Z,96380.94
2023-05-12T16:32:51.150Z,96377.63
2023-05-12T16:35:17.568Z,96382.53
2023-05-12T16:37:43.980Z,96389.19
2023-05-12T16:40:10.656Z,96384.41
2023-05-12T16:42:37.148Z,96383.41
2023-05-12T16:45:03.536Z,96386.03
2023-05-12T16:47:29.928Z,96379.81
2023-05-12T16:49:56.323Z,96388.16
2023-05-12T16:52:22.877Z,96390.63
2023-05-12T16:54:49.281Z,96388.75
2023-05-12T16:57:15.707Z,96392.50
2023-05-12T16:59:42.149Z,96389.44
2023-05-12T17:02:08.592Z,96394.66
2023-05-12T17:04:35.039Z,96391.97
2023-05-12T17:07:01.482Z,96405.47
2023-05-12T17:09:28.598Z,96407.53
2023-05-12T17:11:54.970Z,96403.44
2023-05-12T17:14:21.393Z,96415.47
2023-05-12T17:16:47.785Z,96411.81
2023-05-12T17:19:14.774Z,96418.41
2023-05-12T17:21:41.571Z,96420.16
2023-05-12T17:24:10.157Z,96429.09
2023-05-12T17:26:36.522Z,96427.28
2023-05-12T17:29:02.929Z,96423.88
2023-05-12T17:31:29.422Z,96426.97
2023-05-12T17:33:55.964Z,96423.09
2023-05-12T17:36:22.403Z,96434.41
2023-05-12T17:38:48.801Z,96432.91
2023-05-12T17:41:16.574Z,96437.13
2023-05-12T17:43:43.005Z,96434.13
2023-05-12T17:46:09.390Z,96441.88
2023-05-12T17:48:35.808Z,96434.63
2023-05-12T17:51:02.195Z,96437.97
2023-05-12T17:53:28.623Z,96435.38
2023-05-12T17:55:55.092Z,96439.97
2023-05-12T17:58:21.480Z,96433.25
2023-05-12T18:00:48.000Z,96441.34
2023-05-12T18:03:14.540Z,96438.88
2023-05-12T18:05:41.244Z,96433.69
2023-05-12T18:08:07.939Z,96442.03
2023-05-12T18:10:34.348Z,96444.22
2023-05-12T18:13:00.762Z,96448.13
2023-05-12T18:15:27.322Z,96442.38
2023-05-12T18:17:53.848Z,96442.53
2023-05-12T18:20:20.367Z,96445.34
2023-05-12T18:22:46.778Z,96456.50
2023-05-12T18:25:13.213Z,96459.72
2023-05-12T18:27:39.618Z,96461.13
2023-05-12T18:30:06.049Z,96452.78
2023-05-12T18:32:32.478Z,96461.72
2023-05-12T18:34:59.301Z,96464.75
2023-05-12T18:37:25.732Z,96467.16
2023-05-12T18:39:52.217Z,96470.38
2023-05-12T18:42:18.740Z,96463.66
2023-05-12T18:44:45.175Z,96462.50
2023-05-12T18:47:11.677Z,96479.03
2023-05-12T18:49:38.052Z,96471.31
2023-05-12T18:52:04.486Z,96474.13
2023-05-12T18:54:30.896Z,96469.34
2023-05-12T18:56:57.281Z,96476.84
2023-05-12T18:59:23.700Z,96471.38
2023-05-12T19:01:50.177Z,96474.50
2023-05-12T19:04:16.622Z,96477.63
2023-05-12T19:06:43.036Z,96473.91
2023-05-12T19:09:09.567Z,96477.19
2023-05-12T19:11:35.968Z,96481.88
2023-05-12T19:14:02.367Z,96493.56
2023-05-12T19:16:28.845Z,96495.28
2023-05-12T19:18:55.488Z,96495.56
2023-05-12T19:21:21.940Z,96497.22
2023-05-12T19:23:48.300Z,96508.13
2023-05-12T19:26:14.673Z,96509.38
2023-05-12T19:28:41.102Z,96507.25
2023-05-12T19:31:07.716Z,96511.22
2023-05-12T19:33:34.138Z,96521.78
2023-05-12T19:36:00.529Z,96527.16
2023-05-12T19:38:26.915Z,96522.75
2023-05-12T19:40:53.374Z,96521.53
2023-05-12T19:43:19.815Z,96529.56
2023-05-12T19:45:46.210Z,96524.16
2023-05-12T19:48:12.630Z,96526.25
2023-05-12T19:50:39.051Z,96526.88
2023-05-12T19:53:05.462Z,96535.97
2023-05-12T19:55:31.849Z,96546.22
2023-05-12T19:57:58.251Z,96540.34
2023-05-12T20:00:24.687Z,96545.72
2023-05-12T20:02:51.312Z,96545.22
2023-05-12T20:05:17.892Z,96547.41
2023-05-12T20:07:44.647Z,96552.56
2023-05-12T20:10:11.063Z,96551.75
2023-05-12T20:12:37.499Z,96548.63
2023-05-12T20:15:03.887Z,96554.06
2023-05-12T20:17:30.346Z,96549.19
2023-05-12T20:19:56.787Z,96549.69
2023-05-12T20:22:23.186Z,96551.38
2023-05-12T20:24:49.560Z,96555.38
2023-05-12T20:27:15.955Z,96552.97
2023-05-12T20:29:42.371Z,96561.38
2023-05-12T20:32:08.885Z,96564.34
2023-05-12T20:34:35.304Z,96558.28
2023-05-12T20:37:01.690Z,96567.66
2023-05-12T20:39:28.152Z,96568.75
2023-05-12T20:41:54.660Z,96566.94
2023-05-12T20:44:21.052Z,96569.16
2023-05-12T20:46:47.622Z,96575.59
2023-05-12T20:49:14.053Z,96571.59
2023-05-12T20:51:40.449Z,96575.94
2023-05-12T20:54:07.007Z,96577.34
2023-05-12T20:56:33.413Z,96576.28
2023-05-12T20:58:59.853Z,96572.75
2023-05-12T21:01:26.327Z,96586.28
2023-05-12T21:03:52.871Z,96577.44
2023-05-12T21:06:19.424Z,96584.22
2023-05-12T21:08:45.826Z,96586.66
2023-05-12T21:11:12.252Z,96580.50
2023-05-12T21:13:38.682Z,96588.84
2023-05-12T21:16:05.129Z,96587.38
2023-05-12T21:18:31.569Z,96592.84
2023-05-12T21:20:57.987Z,96594.72
2023-05-12T21:23:24.426Z,96594.38
2023-05-12T21:25:50.822Z,96598.03
2023-05-12T21:28:17.389Z,96599.56
2023-05-12T21:30:43.793Z,96592.84
2023-05-12T21:33:10.209Z,96598.91
2023-05-12T21:35:36.638Z,96595.94
2023-05-12T21:38:03.196Z,96595.44
2023-05-12T21:40:29.614Z,96594.75
2023-05-12T21:42:56.087Z,96590.28
2023-05-12T21:45:22.564Z,96591.25
2023-05-12T21:47:48.941Z,96595.50
2023-05-12T21:50:15.368Z,96604.28
2023-05-12T21:52:41.784Z,96601.72
2023-05-12T21:55:08.176Z,96598.97
2023-05-12T21:57:34.584Z,96598.66
2023-05-12T22:00:00.990Z,96600.53
2023-05-12T22:02:27.541Z,96602.41
2023-05-12T22:04:53.967Z,96603.13
2023-05-12T22:07:20.390Z,96605.06
2023-05-12T22:09:46.802Z,96602.84
2023-05-12T22:12:13.184Z,96605.78
2023-05-12T22:14:39.585Z,96598.69
2023-05-12T22:17:06.253Z,96608.72
2023-05-12T22:19:32.698Z,96615.69
2023-05-12T22:21:59.110Z,96613.00
2023-05-12T22:24:25.539Z,96605.97
2023-05-12T22:26:51.941Z,96610.34
2023-05-12T22:29:18.304Z,96609.00
2023-05-12T22:31:44.708Z,96610.88
2023-05-12T22:34:11.155Z,96618.72
2023-05-12T22:36:37.705Z,96621.19
2023-05-12T22:39:04.137Z,96625.22
2023-05-12T22:41:30.504Z,96627.34
2023-05-12T22:43:56.955Z,96620.44
2023-05-12T22:46:23.349Z,96629.03
2023-05-12T22:48:49.736Z,96628.22
2023-05-12T22:51:16.112Z,96628.56
2023-05-12T22:53:42.500Z,96629.38
2023-05-12T22:56:08.885Z,96635.09
2023-05-12T22:58:35.300Z,96634.28
2023-05-12T23:01:01.794Z,96631.81
2023-05-12T23:03:28.317Z,96630.22
2023-05-12T23:05:54.685Z,96625.41
2023-05-12T23:08:21.225Z,96634.03
2023-05-12T23:10:47.707Z,96636.72
2023-05-12T23:13:14.104Z,96641.56
2023-05-12T23:15:40.530Z,96640.22
2023-05-12T23:18:06.955Z,96642.13
2023-05-12T23:20:33.366Z,96640.00
2023-05-12T23:22:59.736Z,96636.84
2023-05-12T23:25:26.175Z,96645.16
2023-05-12T23:27:52.549Z,96645.66
2023-05-12T23:30:19.126Z,96638.19
2023-05-12T23:32:45.703Z,96646.56
2023-05-12T23:35:12.177Z,96643.31
2023-05-12T23:37:38.560Z,96644.16
2023-05-12T23:40:05.190Z,96645.50
2023-05-12T23:42:31.587Z,96647.69
2023-05-12T23:44:58.021Z,96647.97
2023-05-12T23:47:24.554Z,96641.78
2023-05-12T23:49:50.990Z,96645.31
2023-05-12T23:52:17.383Z,96648.25
2023-05-12T23:54:43.774Z,96654.69
2023-05-12T23:57:10.160Z,96655.00
2023-05-12T23:59:36.559Z,96650.69
